sensor_id;sensor_type;location;lat;lon;timestamp;P1;durP1;ratioP1;P2;durP2;ratioP2
40967;SDS011;57377;45.130;6.038;2023-04-24T00:00:32;3.05;;;0.95;;
40967;SDS011;57377;45.130;6.038;2023-04-24T00:02:57;3.63;;;0.80;;
40967;SDS011;57377;45.130;6.038;2023-04-24T00:05:23;0.93;;;0.40;;
40967;SDS011;57377;45.130;6.038;2023-04-24T00:07:49;1.60;;;0.40;;
40967;SDS011;57377;45.130;6.038;2023-04-24T00:10:17;3.97;;;0.60;;
40967;SDS011;57377;45.130;6.038;2023-04-24T00:12:43;2.03;;;0.50;;
40967;SDS011;57377;45.130;6.038;2023-04-24T00:15:08;5.50;;;0.65;;
40967;SDS011;57377;45.130;6.038;2023-04-24T00:17:34;2.33;;;0.80;;
40967;SDS011;57377;45.130;6.038;2023-04-24T00:19:59;1.77;;;0.63;;
40967;SDS011;57377;45.130;6.038;2023-04-24T00:22:27;0.70;;;0.43;;
40967;SDS011;57377;45.130;6.038;2023-04-24T00:24:53;0.93;;;0.50;;
40967;SDS011;57377;45.130;6.038;2023-04-24T00:27:18;1.33;;;0.50;;
40967;SDS011;57377;45.130;6.038;2023-04-24T00:29:44;1.98;;;0.65;;
40967;SDS011;57377;45.130;6.038;2023-04-24T00:32:09;0.95;;;0.63;;
40967;SDS011;57377;45.130;6.038;2023-04-24T00:34:34;0.95;;;0.60;;
40967;SDS011;57377;45.130;6.038;2023-04-24T00:37:00;1.23;;;0.60;;
40967;SDS011;57377;45.130;6.038;2023-04-24T00:39:26;0.80;;;0.50;;
40967;SDS011;57377;45.130;6.038;2023-04-24T00:41:51;0.93;;;0.50;;
40967;SDS011;57377;45.130;6.038;2023-04-24T00:44:18;1.58;;;0.68;;
40967;SDS011;57377;45.130;6.038;2023-04-24T00:46:43;1.10;;;0.50;;
40967;SDS011;57377;45.130;6.038;2023-04-24T00:49:08;2.20;;;0.57;;
40967;SDS011;57377;45.130;6.038;2023-04-24T00:51:34;2.00;;;0.57;;
40967;SDS011;57377;45.130;6.038;2023-04-24T00:54:00;1.17;;;0.60;;
40967;SDS011;57377;45.130;6.038;2023-04-24T00:56:26;1.83;;;0.52;;
40967;SDS011;57377;45.130;6.038;2023-04-24T00:58:52;5.53;;;0.50;;
40967;SDS011;57377;45.130;6.038;2023-04-24T01:01:19;2.38;;;0.63;;
40967;SDS011;57377;45.130;6.038;2023-04-24T01:03:46;1.95;;;0.60;;
40967;SDS011;57377;45.130;6.038;2023-04-24T01:06:12;1.35;;;0.70;;
40967;SDS011;57377;45.130;6.038;2023-04-24T01:08:38;2.72;;;1.20;;
40967;SDS011;57377;45.130;6.038;2023-04-24T01:11:05;0.85;;;0.60;;
40967;SDS011;57377;45.130;6.038;2023-04-24T01:13:31;2.20;;;0.60;;
40967;SDS011;57377;45.130;6.038;2023-04-24T01:15:57;1.75;;;0.63;;
40967;SDS011;57377;45.130;6.038;2023-04-24T01:18:22;1.02;;;0.45;;
40967;SDS011;57377;45.130;6.038;2023-04-24T01:20:47;2.35;;;0.55;;
40967;SDS011;57377;45.130;6.038;2023-04-24T01:23:18;2.13;;;0.60;;
40967;SDS011;57377;45.130;6.038;2023-04-24T01:25:43;1.77;;;0.52;;
40967;SDS011;57377;45.130;6.038;2023-04-24T01:28:09;2.25;;;0.60;;
40967;SDS011;57377;45.130;6.038;2023-04-24T01:30:35;2.17;;;0.93;;
40967;SDS011;57377;45.130;6.038;2023-04-24T01:33:00;5.28;;;0.90;;
40967;SDS011;57377;45.130;6.038;2023-04-24T01:35:26;7.18;;;0.90;;
40967;SDS011;57377;45.130;6.038;2023-04-24T01:37:52;1.88;;;0.70;;
40967;SDS011;57377;45.130;6.038;2023-04-24T01:40:17;2.13;;;0.95;;
40967;SDS011;57377;45.130;6.038;2023-04-24T01:42:42;4.85;;;1.00;;
40967;SDS011;57377;45.130;6.038;2023-04-24T01:45:09;3.05;;;0.80;;
40967;SDS011;57377;45.130;6.038;2023-04-24T01:47:36;1.63;;;0.68;;
40967;SDS011;57377;45.130;6.038;2023-04-24T01:50:01;3.08;;;0.88;;
40967;SDS011;57377;45.130;6.038;2023-04-24T01:52:27;1.83;;;0.70;;
40967;SDS011;57377;45.130;6.038;2023-04-24T01:54:56;1.70;;;0.60;;
40967;SDS011;57377;45.130;6.038;2023-04-24T01:57:24;5.00;;;1.13;;
40967;SDS011;57377;45.130;6.038;2023-04-24T01:59:50;1.38;;;0.63;;
40967;SDS011;57377;45.130;6.038;2023-04-24T02:02:16;1.27;;;0.85;;
40967;SDS011;57377;45.130;6.038;2023-04-24T02:04:41;2.05;;;0.65;;
40967;SDS011;57377;45.130;6.038;2023-04-24T02:07:06;3.80;;;0.70;;
40967;SDS011;57377;45.130;6.038;2023-04-24T02:09:32;0.82;;;0.63;;
40967;SDS011;57377;45.130;6.038;2023-04-24T02:11:58;2.45;;;1.35;;
40967;SDS011;57377;45.130;6.038;2023-04-24T02:14:23;2.83;;;0.77;;
40967;SDS011;57377;45.130;6.038;2023-04-24T02:16:48;3.35;;;0.80;;
40967;SDS011;57377;45.130;6.038;2023-04-24T02:19:14;0.60;;;0.50;;
40967;SDS011;57377;45.130;6.038;2023-04-24T02:21:39;2.15;;;0.43;;
40967;SDS011;57377;45.130;6.038;2023-04-24T02:24:04;3.05;;;0.70;;
40967;SDS011;57377;45.130;6.038;2023-04-24T02:26:30;1.38;;;0.50;;
40967;SDS011;57377;45.130;6.038;2023-04-24T02:28:56;0.77;;;0.60;;
40967;SDS011;57377;45.130;6.038;2023-04-24T02:31:22;2.63;;;0.60;;
40967;SDS011;57377;45.130;6.038;2023-04-24T02:33:47;1.08;;;0.52;;
40967;SDS011;57377;45.130;6.038;2023-04-24T02:36:13;2.22;;;0.60;;
40967;SDS011;57377;45.130;6.038;2023-04-24T02:38:38;1.25;;;0.60;;
40967;SDS011;57377;45.130;6.038;2023-04-24T02:41:04;3.15;;;0.75;;
40967;SDS011;57377;45.130;6.038;2023-04-24T02:43:31;3.22;;;0.73;;
40967;SDS011;57377;45.130;6.038;2023-04-24T02:45:57;1.00;;;0.63;;
40967;SDS011;57377;45.130;6.038;2023-04-24T02:48:22;1.42;;;0.50;;
40967;SDS011;57377;45.130;6.038;2023-04-24T02:50:48;2.40;;;1.13;;
40967;SDS011;57377;45.130;6.038;2023-04-24T02:53:14;1.55;;;0.60;;
40967;SDS011;57377;45.130;6.038;2023-04-24T02:55:39;2.22;;;0.90;;
40967;SDS011;57377;45.130;6.038;2023-04-24T02:58:05;1.42;;;0.60;;
40967;SDS011;57377;45.130;6.038;2023-04-24T03:00:31;1.10;;;0.57;;
40967;SDS011;57377;45.130;6.038;2023-04-24T03:02:56;3.33;;;0.68;;
40967;SDS011;57377;45.130;6.038;2023-04-24T03:05:21;4.90;;;0.90;;
40967;SDS011;57377;45.130;6.038;2023-04-24T03:07:47;1.90;;;0.57;;
40967;SDS011;57377;45.130;6.038;2023-04-24T03:10:12;0.50;;;0.40;;
40967;SDS011;57377;45.130;6.038;2023-04-24T03:12:38;3.08;;;0.50;;
40967;SDS011;57377;45.130;6.038;2023-04-24T03:15:03;1.63;;;0.60;;
40967;SDS011;57377;45.130;6.038;2023-04-24T03:17:29;1.00;;;0.60;;
40967;SDS011;57377;45.130;6.038;2023-04-24T03:19:55;0.93;;;0.52;;
40967;SDS011;57377;45.130;6.038;2023-04-24T03:22:20;2.83;;;1.15;;
40967;SDS011;57377;45.130;6.038;2023-04-24T03:24:45;1.52;;;0.63;;
40967;SDS011;57377;45.130;6.038;2023-04-24T03:27:11;1.52;;;0.50;;
40967;SDS011;57377;45.130;6.038;2023-04-24T03:29:36;2.30;;;1.15;;
40967;SDS011;57377;45.130;6.038;2023-04-24T03:32:01;4.35;;;0.95;;
40967;SDS011;57377;45.130;6.038;2023-04-24T03:34:27;4.82;;;1.10;;
40967;SDS011;57377;45.130;6.038;2023-04-24T03:36:53;13.25;;;5.30;;
40967;SDS011;57377;45.130;6.038;2023-04-24T03:39:18;22.17;;;9.20;;
40967;SDS011;57377;45.130;6.038;2023-04-24T03:41:43;16.58;;;5.85;;
40967;SDS011;57377;45.130;6.038;2023-04-24T03:44:09;6.13;;;2.17;;
40967;SDS011;57377;45.130;6.038;2023-04-24T03:46:34;11.52;;;3.63;;
40967;SDS011;57377;45.130;6.038;2023-04-24T03:49:00;8.52;;;3.42;;
40967;SDS011;57377;45.130;6.038;2023-04-24T03:51:25;5.30;;;2.33;;
40967;SDS011;57377;45.130;6.038;2023-04-24T03:53:52;2.45;;;0.80;;
40967;SDS011;57377;45.130;6.038;2023-04-24T03:56:18;1.92;;;1.33;;
40967;SDS011;57377;45.130;6.038;2023-04-24T03:58:43;6.10;;;0.70;;
40967;SDS011;57377;45.130;6.038;2023-04-24T04:01:09;6.65;;;1.10;;
40967;SDS011;57377;45.130;6.038;2023-04-24T04:03:35;2.00;;;0.70;;
40967;SDS011;57377;45.130;6.038;2023-04-24T04:06:00;2.88;;;0.77;;
40967;SDS011;57377;45.130;6.038;2023-04-24T04:08:26;3.20;;;0.82;;
40967;SDS011;57377;45.130;6.038;2023-04-24T04:10:51;2.05;;;0.80;;
40967;SDS011;57377;45.130;6.038;2023-04-24T04:13:16;5.07;;;1.23;;
40967;SDS011;57377;45.130;6.038;2023-04-24T04:15:42;1.52;;;0.70;;
40967;SDS011;57377;45.130;6.038;2023-04-24T04:18:07;2.17;;;0.60;;
40967;SDS011;57377;45.130;6.038;2023-04-24T04:20:33;5.07;;;0.80;;
40967;SDS011;57377;45.130;6.038;2023-04-24T04:22:58;4.63;;;0.77;;
40967;SDS011;57377;45.130;6.038;2023-04-24T04:25:24;4.32;;;0.70;;
40967;SDS011;57377;45.130;6.038;2023-04-24T04:27:49;1.63;;;0.73;;
40967;SDS011;57377;45.130;6.038;2023-04-24T04:30:16;2.13;;;0.75;;
40967;SDS011;57377;45.130;6.038;2023-04-24T04:32:41;2.47;;;0.75;;
40967;SDS011;57377;45.130;6.038;2023-04-24T04:35:06;6.35;;;0.70;;
40967;SDS011;57377;45.130;6.038;2023-04-24T04:37:32;1.08;;;0.55;;
40967;SDS011;57377;45.130;6.038;2023-04-24T04:40:01;0.90;;;0.70;;
40967;SDS011;57377;45.130;6.038;2023-04-24T04:42:31;1.55;;;0.60;;
40967;SDS011;57377;45.130;6.038;2023-04-24T04:44:57;3.88;;;1.00;;
40967;SDS011;57377;45.130;6.038;2023-04-24T04:47:23;2.15;;;0.52;;
40967;SDS011;57377;45.130;6.038;2023-04-24T04:49:48;2.22;;;0.50;;
40967;SDS011;57377;45.130;6.038;2023-04-24T04:52:14;2.50;;;0.65;;
40967;SDS011;57377;45.130;6.038;2023-04-24T04:54:39;8.18;;;0.75;;
40967;SDS011;57377;45.130;6.038;2023-04-24T04:57:05;1.10;;;0.47;;
40967;SDS011;57377;45.130;6.038;2023-04-24T04:59:31;4.75;;;0.60;;
40967;SDS011;57377;45.130;6.038;2023-04-24T05:01:56;3.53;;;0.47;;
40967;SDS011;57377;45.130;6.038;2023-04-24T05:04:21;1.42;;;0.80;;
40967;SDS011;57377;45.130;6.038;2023-04-24T05:06:46;1.10;;;0.40;;
40967;SDS011;57377;45.130;6.038;2023-04-24T05:09:12;3.63;;;0.65;;
40967;SDS011;57377;45.130;6.038;2023-04-24T05:11:37;11.60;;;0.73;;
40967;SDS011;57377;45.130;6.038;2023-04-24T05:14:03;1.92;;;0.70;;
40967;SDS011;57377;45.130;6.038;2023-04-24T05:16:28;0.95;;;0.60;;
40967;SDS011;57377;45.130;6.038;2023-04-24T05:18:54;1.30;;;0.70;;
40967;SDS011;57377;45.130;6.038;2023-04-24T05:21:19;1.60;;;0.98;;
40967;SDS011;57377;45.130;6.038;2023-04-24T05:23:45;1.67;;;0.63;;
40967;SDS011;57377;45.130;6.038;2023-04-24T05:26:10;2.30;;;0.73;;
40967;SDS011;57377;45.130;6.038;2023-04-24T05:28:35;1.65;;;0.60;;
40967;SDS011;57377;45.130;6.038;2023-04-24T05:31:01;3.75;;;0.80;;
40967;SDS011;57377;45.130;6.038;2023-04-24T05:33:27;3.80;;;1.15;;
40967;SDS011;57377;45.130;6.038;2023-04-24T05:35:53;1.58;;;0.70;;
40967;SDS011;57377;45.130;6.038;2023-04-24T05:38:18;0.77;;;0.55;;
40967;SDS011;57377;45.130;6.038;2023-04-24T05:40:45;1.00;;;0.70;;
40967;SDS011;57377;45.130;6.038;2023-04-24T05:43:11;2.33;;;0.93;;
40967;SDS011;57377;45.130;6.038;2023-04-24T05:45:37;1.05;;;0.40;;
40967;SDS011;57377;45.130;6.038;2023-04-24T05:48:03;1.38;;;0.50;;
40967;SDS011;57377;45.130;6.038;2023-04-24T05:50:28;4.00;;;0.90;;
40967;SDS011;57377;45.130;6.038;2023-04-24T05:52:54;1.63;;;0.50;;
40967;SDS011;57377;45.130;6.038;2023-04-24T05:55:19;1.33;;;0.57;;
40967;SDS011;57377;45.130;6.038;2023-04-24T05:57:45;1.20;;;0.60;;
40967;SDS011;57377;45.130;6.038;2023-04-24T06:00:11;1.40;;;0.70;;
40967;SDS011;57377;45.130;6.038;2023-04-24T06:02:39;1.40;;;0.45;;
40967;SDS011;57377;45.130;6.038;2023-04-24T06:05:05;5.72;;;0.80;;
40967;SDS011;57377;45.130;6.038;2023-04-24T06:07:31;2.72;;;0.60;;
40967;SDS011;57377;45.130;6.038;2023-04-24T06:09:57;2.55;;;1.02;;
40967;SDS011;57377;45.130;6.038;2023-04-24T06:12:22;3.92;;;1.25;;
40967;SDS011;57377;45.130;6.038;2023-04-24T06:14:48;1.20;;;0.85;;
40967;SDS011;57377;45.130;6.038;2023-04-24T06:17:13;5.32;;;1.50;;
40967;SDS011;57377;45.130;6.038;2023-04-24T06:19:39;5.32;;;1.30;;
40967;SDS011;57377;45.130;6.038;2023-04-24T06:22:05;2.13;;;1.23;;
40967;SDS011;57377;45.130;6.038;2023-04-24T06:24:30;5.00;;;1.25;;
40967;SDS011;57377;45.130;6.038;2023-04-24T06:26:56;1.38;;;0.90;;
40967;SDS011;57377;45.130;6.038;2023-04-24T06:29:23;7.88;;;2.17;;
40967;SDS011;57377;45.130;6.038;2023-04-24T06:31:49;3.40;;;0.90;;
40967;SDS011;57377;45.130;6.038;2023-04-24T06:34:14;2.17;;;0.80;;
40967;SDS011;57377;45.130;6.038;2023-04-24T06:36:40;1.23;;;0.70;;
40967;SDS011;57377;45.130;6.038;2023-04-24T06:39:05;2.17;;;0.98;;
40967;SDS011;57377;45.130;6.038;2023-04-24T06:41:30;6.53;;;1.08;;
40967;SDS011;57377;45.130;6.038;2023-04-24T06:43:56;4.28;;;0.80;;
40967;SDS011;57377;45.130;6.038;2023-04-24T06:46:21;1.20;;;0.70;;
40967;SDS011;57377;45.130;6.038;2023-04-24T06:48:51;2.10;;;0.52;;
40967;SDS011;57377;45.130;6.038;2023-04-24T06:51:17;2.35;;;0.80;;
40967;SDS011;57377;45.130;6.038;2023-04-24T06:53:43;2.65;;;0.70;;
40967;SDS011;57377;45.130;6.038;2023-04-24T06:56:08;2.97;;;1.25;;
40967;SDS011;57377;45.130;6.038;2023-04-24T06:58:34;1.17;;;0.68;;
40967;SDS011;57377;45.130;6.038;2023-04-24T07:00:59;3.22;;;1.77;;
40967;SDS011;57377;45.130;6.038;2023-04-24T07:03:24;2.15;;;0.88;;
40967;SDS011;57377;45.130;6.038;2023-04-24T07:05:50;3.17;;;0.85;;
40967;SDS011;57377;45.130;6.038;2023-04-24T07:08:16;1.52;;;0.70;;
40967;SDS011;57377;45.130;6.038;2023-04-24T07:10:42;1.85;;;0.68;;
40967;SDS011;57377;45.130;6.038;2023-04-24T07:13:08;3.22;;;0.70;;
40967;SDS011;57377;45.130;6.038;2023-04-24T07:15:34;2.08;;;0.70;;
40967;SDS011;57377;45.130;6.038;2023-04-24T07:17:59;3.22;;;0.95;;
40967;SDS011;57377;45.130;6.038;2023-04-24T07:20:25;2.05;;;1.00;;
40967;SDS011;57377;45.130;6.038;2023-04-24T07:22:50;2.53;;;0.90;;
40967;SDS011;57377;45.130;6.038;2023-04-24T07:25:16;2.40;;;0.57;;
40967;SDS011;57377;45.130;6.038;2023-04-24T07:27:42;7.90;;;0.75;;
40967;SDS011;57377;45.130;6.038;2023-04-24T07:30:07;2.05;;;0.60;;
40967;SDS011;57377;45.130;6.038;2023-04-24T07:32:33;4.15;;;0.70;;
40967;SDS011;57377;45.130;6.038;2023-04-24T07:35:00;2.17;;;0.80;;
40967;SDS011;57377;45.130;6.038;2023-04-24T07:37:25;2.95;;;0.70;;
40967;SDS011;57377;45.130;6.038;2023-04-24T07:39:51;5.80;;;0.60;;
40967;SDS011;57377;45.130;6.038;2023-04-24T07:42:16;0.85;;;0.50;;
40967;SDS011;57377;45.130;6.038;2023-04-24T07:44:42;3.30;;;1.00;;
40967;SDS011;57377;45.130;6.038;2023-04-24T07:47:07;1.50;;;0.60;;
40967;SDS011;57377;45.130;6.038;2023-04-24T07:49:33;3.58;;;0.70;;
40967;SDS011;57377;45.130;6.038;2023-04-24T07:51:59;4.20;;;0.60;;
40967;SDS011;57377;45.130;6.038;2023-04-24T07:54:26;1.35;;;0.60;;
40967;SDS011;57377;45.130;6.038;2023-04-24T07:56:52;4.68;;;0.60;;
40967;SDS011;57377;45.130;6.038;2023-04-24T07:59:17;1.95;;;0.80;;
40967;SDS011;57377;45.130;6.038;2023-04-24T08:01:42;1.67;;;0.73;;
40967;SDS011;57377;45.130;6.038;2023-04-24T08:04:08;1.27;;;0.50;;
40967;SDS011;57377;45.130;6.038;2023-04-24T08:06:33;2.20;;;0.57;;
40967;SDS011;57377;45.130;6.038;2023-04-24T08:08:59;1.40;;;0.60;;
40967;SDS011;57377;45.130;6.038;2023-04-24T08:11:25;2.75;;;0.90;;
40967;SDS011;57377;45.130;6.038;2023-04-24T08:13:50;1.90;;;1.20;;
40967;SDS011;57377;45.130;6.038;2023-04-24T08:16:16;1.80;;;0.60;;
40967;SDS011;57377;45.130;6.038;2023-04-24T08:18:41;2.08;;;0.65;;
40967;SDS011;57377;45.130;6.038;2023-04-24T08:21:07;4.43;;;0.80;;
40967;SDS011;57377;45.130;6.038;2023-04-24T08:23:32;1.33;;;0.40;;
40967;SDS011;57377;45.130;6.038;2023-04-24T08:25:57;5.47;;;0.70;;
40967;SDS011;57377;45.130;6.038;2023-04-24T08:28:23;1.75;;;0.60;;
40967;SDS011;57377;45.130;6.038;2023-04-24T08:30:48;0.90;;;0.45;;
40967;SDS011;57377;45.130;6.038;2023-04-24T08:33:19;1.80;;;0.40;;
40967;SDS011;57377;45.130;6.038;2023-04-24T08:35:45;1.05;;;0.50;;
40967;SDS011;57377;45.130;6.038;2023-04-24T08:38:10;1.50;;;1.00;;
40967;SDS011;57377;45.130;6.038;2023-04-24T08:40:35;4.10;;;2.20;;
40967;SDS011;57377;45.130;6.038;2023-04-24T08:43:01;8.32;;;4.05;;
40967;SDS011;57377;45.130;6.038;2023-04-24T08:45:28;3.53;;;1.87;;
40967;SDS011;57377;45.130;6.038;2023-04-24T08:47:54;3.53;;;1.20;;
40967;SDS011;57377;45.130;6.038;2023-04-24T08:50:20;1.77;;;1.00;;
40967;SDS011;57377;45.130;6.038;2023-04-24T08:52:47;0.88;;;0.60;;
40967;SDS011;57377;45.130;6.038;2023-04-24T08:55:15;2.22;;;1.02;;
40967;SDS011;57377;45.130;6.038;2023-04-24T08:57:43;1.67;;;0.85;;
40967;SDS011;57377;45.130;6.038;2023-04-24T09:02:36;1.27;;;0.50;;
40967;SDS011;57377;45.130;6.038;2023-04-24T09:05:02;1.08;;;0.73;;
40967;SDS011;57377;45.130;6.038;2023-04-24T09:07:28;1.05;;;0.68;;
40967;SDS011;57377;45.130;6.038;2023-04-24T09:09:57;2.42;;;0.65;;
40967;SDS011;57377;45.130;6.038;2023-04-24T09:12:23;0.77;;;0.68;;
40967;SDS011;57377;45.130;6.038;2023-04-24T09:14:48;2.05;;;0.60;;
40967;SDS011;57377;45.130;6.038;2023-04-24T09:17:14;1.10;;;0.63;;
40967;SDS011;57377;45.130;6.038;2023-04-24T09:19:40;6.85;;;1.02;;
40967;SDS011;57377;45.130;6.038;2023-04-24T09:22:07;4.27;;;0.73;;
40967;SDS011;57377;45.130;6.038;2023-04-24T09:24:34;1.23;;;0.75;;
40967;SDS011;57377;45.130;6.038;2023-04-24T09:27:00;3.28;;;0.77;;
40967;SDS011;57377;45.130;6.038;2023-04-24T09:29:28;1.42;;;1.00;;
40967;SDS011;57377;45.130;6.038;2023-04-24T09:31:54;13.77;;;1.10;;
40967;SDS011;57377;45.130;6.038;2023-04-24T09:34:24;11.60;;;1.38;;
40967;SDS011;57377;45.130;6.038;2023-04-24T09:36:51;3.03;;;0.73;;
40967;SDS011;57377;45.130;6.038;2023-04-24T09:39:17;5.72;;;0.60;;
40967;SDS011;57377;45.130;6.038;2023-04-24T09:41:51;4.15;;;0.88;;
40967;SDS011;57377;45.130;6.038;2023-04-24T09:44:18;1.92;;;0.70;;
40967;SDS011;57377;45.130;6.038;2023-04-24T09:46:54;0.70;;;0.50;;
40967;SDS011;57377;45.130;6.038;2023-04-24T09:49:30;0.77;;;0.50;;
40967;SDS011;57377;45.130;6.038;2023-04-24T09:52:04;1.00;;;0.50;;
40967;SDS011;57377;45.130;6.038;2023-04-24T09:54:30;8.73;;;1.20;;
40967;SDS011;57377;45.130;6.038;2023-04-24T09:56:56;5.40;;;0.93;;
40967;SDS011;57377;45.130;6.038;2023-04-24T09:59:21;10.48;;;2.13;;
40967;SDS011;57377;45.130;6.038;2023-04-24T10:01:47;8.77;;;1.00;;
40967;SDS011;57377;45.130;6.038;2023-04-24T10:04:18;4.53;;;0.52;;
40967;SDS011;57377;45.130;6.038;2023-04-24T10:06:48;6.55;;;0.63;;
40967;SDS011;57377;45.130;6.038;2023-04-24T10:09:14;2.47;;;0.70;;
40967;SDS011;57377;45.130;6.038;2023-04-24T10:11:41;3.83;;;0.67;;
40967;SDS011;57377;45.130;6.038;2023-04-24T10:14:12;0.80;;;0.60;;
40967;SDS011;57377;45.130;6.038;2023-04-24T10:16:41;2.65;;;0.60;;
40967;SDS011;57377;45.130;6.038;2023-04-24T10:19:07;1.23;;;0.70;;
40967;SDS011;57377;45.130;6.038;2023-04-24T10:21:34;5.95;;;0.90;;
40967;SDS011;57377;45.130;6.038;2023-04-24T10:24:00;3.58;;;0.70;;
40967;SDS011;57377;45.130;6.038;2023-04-24T10:26:28;1.30;;;0.73;;
40967;SDS011;57377;45.130;6.038;2023-04-24T10:28:54;4.78;;;1.25;;
40967;SDS011;57377;45.130;6.038;2023-04-24T10:31:22;0.95;;;0.50;;
40967;SDS011;57377;45.130;6.038;2023-04-24T10:33:47;0.60;;;0.50;;
40967;SDS011;57377;45.130;6.038;2023-04-24T10:36:16;0.80;;;0.60;;
40967;SDS011;57377;45.130;6.038;2023-04-24T10:38:42;1.83;;;0.63;;
40967;SDS011;57377;45.130;6.038;2023-04-24T10:41:11;2.22;;;0.63;;
40967;SDS011;57377;45.130;6.038;2023-04-24T10:43:48;0.57;;;0.50;;
40967;SDS011;57377;45.130;6.038;2023-04-24T10:46:21;2.83;;;0.80;;
40967;SDS011;57377;45.130;6.038;2023-04-24T10:48:53;3.92;;;0.80;;
40967;SDS011;57377;45.130;6.038;2023-04-24T10:51:21;0.73;;;0.60;;
40967;SDS011;57377;45.130;6.038;2023-04-24T10:53:49;5.35;;;0.73;;
40967;SDS011;57377;45.130;6.038;2023-04-24T10:56:15;2.08;;;0.70;;
40967;SDS011;57377;45.130;6.038;2023-04-24T10:58:44;1.88;;;0.70;;
40967;SDS011;57377;45.130;6.038;2023-04-24T11:01:24;2.45;;;0.80;;
40967;SDS011;57377;45.130;6.038;2023-04-24T11:03:54;0.95;;;0.70;;
40967;SDS011;57377;45.130;6.038;2023-04-24T11:06:28;2.15;;;0.70;;
40967;SDS011;57377;45.130;6.038;2023-04-24T11:09:07;6.22;;;1.20;;
40967;SDS011;57377;45.130;6.038;2023-04-24T11:11:35;0.63;;;0.50;;
40967;SDS011;57377;45.130;6.038;2023-04-24T11:14:03;1.33;;;0.70;;
40967;SDS011;57377;45.130;6.038;2023-04-24T11:16:35;1.13;;;0.57;;
40967;SDS011;57377;45.130;6.038;2023-04-24T11:19:04;4.55;;;1.08;;
40967;SDS011;57377;45.130;6.038;2023-04-24T11:21:32;0.77;;;0.70;;
40967;SDS011;57377;45.130;6.038;2023-04-24T11:27:05;0.75;;;0.70;;
40967;SDS011;57377;45.130;6.038;2023-04-24T11:29:48;10.63;;;1.02;;
40967;SDS011;57377;45.130;6.038;2023-04-24T11:35:26;1.33;;;0.50;;
40967;SDS011;57377;45.130;6.038;2023-04-24T11:37:53;2.72;;;0.73;;
40967;SDS011;57377;45.130;6.038;2023-04-24T11:40:19;1.38;;;0.50;;
40967;SDS011;57377;45.130;6.038;2023-04-24T11:42:48;0.90;;;0.70;;
40967;SDS011;57377;45.130;6.038;2023-04-24T11:45:17;1.48;;;0.88;;
40967;SDS011;57377;45.130;6.038;2023-04-24T11:47:52;1.85;;;0.80;;
40967;SDS011;57377;45.130;6.038;2023-04-24T11:50:19;1.13;;;0.50;;
40967;SDS011;57377;45.130;6.038;2023-04-24T11:52:47;3.20;;;0.60;;
40967;SDS011;57377;45.130;6.038;2023-04-24T11:57:38;2.92;;;0.50;;
40967;SDS011;57377;45.130;6.038;2023-04-24T12:00:04;1.35;;;0.55;;
40967;SDS011;57377;45.130;6.038;2023-04-24T12:02:30;5.50;;;0.50;;
40967;SDS011;57377;45.130;6.038;2023-04-24T12:04:56;1.73;;;0.77;;
40967;SDS011;57377;45.130;6.038;2023-04-24T12:07:22;1.25;;;0.50;;
40967;SDS011;57377;45.130;6.038;2023-04-24T12:09:49;2.35;;;0.80;;
40967;SDS011;57377;45.130;6.038;2023-04-24T12:12:20;2.45;;;0.60;;
40967;SDS011;57377;45.130;6.038;2023-04-24T12:14:49;1.70;;;0.60;;
40967;SDS011;57377;45.130;6.038;2023-04-24T12:17:17;1.88;;;0.70;;
40967;SDS011;57377;45.130;6.038;2023-04-24T12:19:46;2.97;;;0.50;;
40967;SDS011;57377;45.130;6.038;2023-04-24T12:22:13;5.70;;;0.73;;
40967;SDS011;57377;45.130;6.038;2023-04-24T12:27:33;3.78;;;0.65;;
40967;SDS011;57377;45.130;6.038;2023-04-24T12:29:59;0.80;;;0.52;;
40967;SDS011;57377;45.130;6.038;2023-04-24T12:32:25;3.10;;;0.60;;
40967;SDS011;57377;45.130;6.038;2023-04-24T12:34:52;0.95;;;0.55;;
40967;SDS011;57377;45.130;6.038;2023-04-24T12:37:18;2.78;;;0.63;;
40967;SDS011;57377;45.130;6.038;2023-04-24T12:42:28;3.05;;;0.70;;
40967;SDS011;57377;45.130;6.038;2023-04-24T12:45:01;5.38;;;0.75;;
40967;SDS011;57377;45.130;6.038;2023-04-24T12:47:28;2.42;;;0.68;;
40967;SDS011;57377;45.130;6.038;2023-04-24T12:49:54;4.32;;;0.60;;
40967;SDS011;57377;45.130;6.038;2023-04-24T12:52:20;0.60;;;0.50;;
40967;SDS011;57377;45.130;6.038;2023-04-24T12:54:47;2.30;;;0.70;;
40967;SDS011;57377;45.130;6.038;2023-04-24T12:57:12;1.02;;;0.60;;
40967;SDS011;57377;45.130;6.038;2023-04-24T12:59:38;1.40;;;0.65;;
40967;SDS011;57377;45.130;6.038;2023-04-24T13:02:04;1.45;;;0.60;;
40967;SDS011;57377;45.130;6.038;2023-04-24T13:04:30;2.83;;;0.68;;
40967;SDS011;57377;45.130;6.038;2023-04-24T13:06:55;1.92;;;0.57;;
40967;SDS011;57377;45.130;6.038;2023-04-24T13:09:21;2.00;;;0.60;;
40967;SDS011;57377;45.130;6.038;2023-04-24T13:11:46;2.42;;;0.47;;
40967;SDS011;57377;45.130;6.038;2023-04-24T13:14:12;2.22;;;0.80;;
40967;SDS011;57377;45.130;6.038;2023-04-24T13:16:37;2.03;;;0.52;;
40967;SDS011;57377;45.130;6.038;2023-04-24T13:19:02;0.60;;;0.50;;
40967;SDS011;57377;45.130;6.038;2023-04-24T13:21:28;2.85;;;0.68;;
40967;SDS011;57377;45.130;6.038;2023-04-24T13:23:55;2.42;;;1.52;;
40967;SDS011;57377;45.130;6.038;2023-04-24T13:26:21;2.60;;;0.80;;
40967;SDS011;57377;45.130;6.038;2023-04-24T13:28:46;2.25;;;1.00;;
40967;SDS011;57377;45.130;6.038;2023-04-24T13:31:11;1.55;;;0.73;;
40967;SDS011;57377;45.130;6.038;2023-04-24T13:33:37;0.73;;;0.50;;
40967;SDS011;57377;45.130;6.038;2023-04-24T13:36:02;0.98;;;0.60;;
40967;SDS011;57377;45.130;6.038;2023-04-24T13:38:28;2.00;;;0.55;;
40967;SDS011;57377;45.130;6.038;2023-04-24T13:40:53;2.38;;;1.08;;
40967;SDS011;57377;45.130;6.038;2023-04-24T13:43:19;2.95;;;0.82;;
40967;SDS011;57377;45.130;6.038;2023-04-24T13:45:44;1.73;;;0.50;;
40967;SDS011;57377;45.130;6.038;2023-04-24T13:48:09;2.58;;;0.47;;
40967;SDS011;57377;45.130;6.038;2023-04-24T13:50:35;0.75;;;0.52;;
40967;SDS011;57377;45.130;6.038;2023-04-24T13:53:00;1.67;;;0.50;;
40967;SDS011;57377;45.130;6.038;2023-04-24T13:55:27;0.98;;;0.77;;
40967;SDS011;57377;45.130;6.038;2023-04-24T13:57:52;2.00;;;0.55;;
40967;SDS011;57377;45.130;6.038;2023-04-24T14:00:20;2.42;;;1.02;;
40967;SDS011;57377;45.130;6.038;2023-04-24T14:02:45;0.65;;;0.50;;
40967;SDS011;57377;45.130;6.038;2023-04-24T14:05:12;2.95;;;0.57;;
40967;SDS011;57377;45.130;6.038;2023-04-24T14:07:39;2.83;;;0.60;;
40967;SDS011;57377;45.130;6.038;2023-04-24T14:10:04;3.15;;;1.13;;
40967;SDS011;57377;45.130;6.038;2023-04-24T14:12:30;0.80;;;0.55;;
40967;SDS011;57377;45.130;6.038;2023-04-24T14:14:55;0.57;;;0.40;;
40967;SDS011;57377;45.130;6.038;2023-04-24T14:17:21;3.60;;;0.88;;
40967;SDS011;57377;45.130;6.038;2023-04-24T14:19:46;2.60;;;0.60;;
40967;SDS011;57377;45.130;6.038;2023-04-24T14:22:12;1.70;;;0.50;;
40967;SDS011;57377;45.130;6.038;2023-04-24T14:24:37;1.17;;;0.65;;
40967;SDS011;57377;45.130;6.038;2023-04-24T14:27:02;2.33;;;0.60;;
40967;SDS011;57377;45.130;6.038;2023-04-24T14:29:28;2.60;;;1.00;;
40967;SDS011;57377;45.130;6.038;2023-04-24T14:31:53;0.60;;;0.60;;
40967;SDS011;57377;45.130;6.038;2023-04-24T14:34:18;2.22;;;0.70;;
40967;SDS011;57377;45.130;6.038;2023-04-24T14:36:44;1.10;;;0.90;;
40967;SDS011;57377;45.130;6.038;2023-04-24T14:39:09;2.20;;;0.50;;
40967;SDS011;57377;45.130;6.038;2023-04-24T14:41:36;1.50;;;0.55;;
40967;SDS011;57377;45.130;6.038;2023-04-24T14:44:04;4.70;;;0.80;;
40967;SDS011;57377;45.130;6.038;2023-04-24T14:46:30;4.68;;;0.75;;
40967;SDS011;57377;45.130;6.038;2023-04-24T14:48:56;4.97;;;0.75;;
40967;SDS011;57377;45.130;6.038;2023-04-24T14:51:22;1.43;;;0.90;;
40967;SDS011;57377;45.130;6.038;2023-04-24T14:53:47;4.15;;;1.55;;
40967;SDS011;57377;45.130;6.038;2023-04-24T14:56:13;2.53;;;0.90;;
40967;SDS011;57377;45.130;6.038;2023-04-24T14:58:38;2.08;;;0.98;;